Time,TemperatureF,DewpointF,PressureIn,WindDirection,WindDirectionDegrees,WindSpeedMPH,WindSpeedGustMPH,Humidity,HourlyPrecipIn,Conditions,Clouds,dailyrainin,SoftwareType,DateUTC
2013-08-10 00:01:00,79.8,73.1,30.03,ENE,74,3.5,0.0,80,0.00,RA,OVC,0.00,WeatherDisplay:10.37,2013-08-10 04:01:00,
2013-08-10 00:06:00,79.9,72.8,30.03,ENE,76,1.0,0.0,79,0.00,RA,OVC,0.00,WeatherDisplay:10.37,2013-08-10 04:06:00,
2013-08-10 00:11:00,79.9,72.8,30.03,NE,43,8.1,8.1,79,0.00,,OVC,0.00,WeatherDisplay:10.37,2013-08-10 04:11:00,
2013-08-10 00:16:00,80.1,73.0,30.02,NE,49,0.0,0.0,79,0.00,,OVC,0.00,WeatherDisplay:10.37,2013-08-10 04:16:00,
2013-08-10 00:21:00,80.1,73.0,30.02,ENE,63,3.5,3.5,79,0.00,,OVC,0.00,WeatherDisplay:10.37,2013-08-10 04:21:00,
2013-08-10 00:26:00,80.1,73.0,30.02,ENE,70,2.3,2.3,79,0.00,,OVC,0.00,WeatherDisplay:10.37,2013-08-10 04:26:00,
2013-08-10 00:31:00,80.1,73.0,30.02,ENE,69,0.0,0.0,79,0.00,,OVC,0.00,WeatherDisplay:10.37,2013-08-10 04:31:00,
2013-08-10 00:36:00,79.9,72.8,30.02,ENE,73,0.0,0.0,79,0.00,,OVC,0.00,WeatherDisplay:10.37,2013-08-10 04:36:00,
2013-08-10 00:41:00,79.9,72.8,30.02,ENE,64,1.0,0.0,79,0.00,,OVC,0.00,WeatherDisplay:10.37,2013-08-10 04:41:00,
2013-08-10 00:46:00,80.1,73.0,30.02,ENE,65,0.0,0.0,79,0.00,,OVC,0.00,WeatherDisplay:10.37,2013-08-10 04:46:00,
2013-08-10 00:51:00,80.1,73.0,30.02,NE,38,6.9,6.9,79,0.00,,OVC,0.00,WeatherDisplay:10.37,2013-08-10 04:51:00,
2013-08-10 00:56:00,80.1,73.0,30.02,NE,38,0.0,0.0,79,0.00,,OVC,0.00,WeatherDisplay:10.37,2013-08-10 04:56:00,
2013-08-10 01:01:00,79.9,72.8,30.02,NE,38,0.0,0.0,79,0.00,,OVC,0.00,WeatherDisplay:10.37,2013-08-10 05:01:00,
2013-08-10 01:06:00,79.9,73.2,30.02,NE,39,0.0,0.0,80,0.00,,OVC,0.00,WeatherDisplay:10.37,2013-08-10 05:06:00,
2013-08-10 01:11:00,79.9,73.2,30.02,NE,39,0.0,0.0,80,0.00,,OVC,0.00,WeatherDisplay:10.37,2013-08-10 05:11:00,
2013-08-10 01:16:00,79.8,73.1,30.02,NE,39,0.0,0.0,80,0.00,,OVC,0.00,WeatherDisplay:10.37,2013-08-10 05:16:00,
2013-08-10 01:21:00,79.8,73.4,30.02,NE,39,0.0,0.0,81,0.00,,OVC,0.00,WeatherDisplay:10.37,2013-08-10 05:21:00,
2013-08-10 01:26:00,79.6,73.3,30.02,NE,39,0.0,0.0,81,0.00,,OVC,0.00,WeatherDisplay:10.37,2013-08-10 05:26:00,
2013-08-10 01:31:00,79.6,73.3,30.02,NE,39,0.0,0.0,81,0.00,,OVC,0.00,WeatherDisplay:10.37,2013-08-10 05:31:00,
2013-08-10 01:36:00,79.4,73.1,30.02,NE,39,0.0,0.0,81,0.00,,OVC,0.00,WeatherDisplay:10.37,2013-08-10 05:36:00,
2013-08-10 01:41:00,79.4,73.4,30.02,NE,39,0.0,0.0,82,0.00,,OVC,0.00,WeatherDisplay:10.37,2013-08-10 05:41:00,
2013-08-10 01:46:00,79.2,73.2,30.02,NE,47,0.0,0.0,82,0.00,,OVC,0.00,WeatherDisplay:10.37,2013-08-10 05:46:00,
2013-08-10 01:51:00,79.0,73.4,30.02,NE,47,0.0,0.0,83,0.00,,OVC,0.00,WeatherDisplay:10.37,2013-08-10 05:51:00,
2013-08-10 01:56:00,79.0,73.4,30.02,East,92,0.0,0.0,83,0.00,,OVC,0.00,WeatherDisplay:10.37,2013-08-10 05:56:00,
2013-08-10 02:01:00,79.0,73.7,30.02,East,92,0.0,0.0,84,0.00,,OVC,0.00,WeatherDisplay:10.37,2013-08-10 06:01:00,
2013-08-10 02:06:00,79.2,73.9,30.02,East,92,0.0,0.0,84,0.00,,OVC,0.00,WeatherDisplay:10.37,2013-08-10 06:06:00,
2013-08-10 02:11:00,79.2,73.9,30.02,East,92,0.0,0.0,84,0.00,,OVC,0.00,WeatherDisplay:10.37,2013-08-10 06:11:00,
2013-08-10 02:16:00,79.2,73.9,30.01,East,90,0.0,0.0,84,0.00,,OVC,0.00,WeatherDisplay:10.37,2013-08-10 06:16:00,
2013-08-10 02:21:00,79.2,73.9,30.01,ENE,61,0.0,0.0,84,0.00,,OVC,0.00,WeatherDisplay:10.37,2013-08-10 06:21:00,
2013-08-10 02:26:00,79.4,73.8,30.01,ENE,62,0.0,0.0,83,0.00,,OVC,0.00,WeatherDisplay:10.37,2013-08-10 06:26:00,
2013-08-10 02:31:00,79.4,73.8,30.01,ENE,62,0.0,0.0,83,0.00,,OVC,0.00,WeatherDisplay:10.37,2013-08-10 06:31:00,
2013-08-10 02:36:00,79.4,73.8,30.01,ENE,63,0.0,0.0,83,0.00,,OVC,0.00,WeatherDisplay:10.37,2013-08-10 06:36:00,
2013-08-10 02:41:00,79.4,73.8,30.01,ENE,64,0.0,0.0,83,0.00,,OVC,0.00,WeatherDisplay:10.37,2013-08-10 06:41:00,
2013-08-10 02:46:00,79.4,73.8,30.01,ENE,66,0.0,0.0,83,0.00,,OVC,0.00,WeatherDisplay:10.37,2013-08-10 06:46:00,
2013-08-10 02:51:00,79.6,74.0,30.01,ESE,107,3.5,0.0,83,0.00,,OVC,0.00,WeatherDisplay:10.37,2013-08-10 06:51:00,
2013-08-10 02:56:00,79.6,73.6,30.01,East,88,0.0,0.0,82,0.00,,OVC,0.00,WeatherDisplay:10.37,2013-08-10 06:56:00,
2013-08-10 03:02:00,79.6,74.0,30.01,East,88,0.0,0.0,83,0.00,,OVC,0.00,WeatherDisplay:10.37,2013-08-10 07:02:00,
2013-08-10 03:07:00,79.6,74.0,30.01,East,89,0.0,0.0,83,0.00,,OVC,0.00,WeatherDisplay:10.37,2013-08-10 07:07:00,
2013-08-10 03:12:00,79.6,73.6,30.01,East,89,0.0,0.0,82,0.00,,OVC,0.00,WeatherDisplay:10.37,2013-08-10 07:12:00,
2013-08-10 03:17:00,79.6,73.6,30.01,East,83,0.0,0.0,82,0.00,,OVC,0.00,WeatherDisplay:10.37,2013-08-10 07:17:00,
2013-08-10 03:22:00,79.8,73.8,30.01,East,82,0.0,0.0,82,0.00,,OVC,0.00,WeatherDisplay:10.37,2013-08-10 07:22:00,
2013-08-10 03:27:00,79.8,73.8,30.01,ENE,72,0.0,0.0,82,0.00,,OVC,0.00,WeatherDisplay:10.37,2013-08-10 07:27:00,
2013-08-10 03:32:00,79.8,73.8,30.00,ENE,74,0.0,0.0,82,0.00,,OVC,0.00,WeatherDisplay:10.37,2013-08-10 07:32:00,
2013-08-10 03:37:00,79.8,73.8,30.00,East,83,6.9,0.0,82,0.00,,OVC,0.00,WeatherDisplay:10.37,2013-08-10 07:37:00,
2013-08-10 03:42:00,79.8,73.8,30.00,East,82,0.0,0.0,82,0.00,,OVC,0.00,WeatherDisplay:10.37,2013-08-10 07:42:00,
2013-08-10 03:47:00,79.8,73.8,30.00,East,83,0.0,0.0,82,0.00,,OVC,0.00,WeatherDisplay:10.37,2013-08-10 07:47:00,
2013-08-10 03:52:00,79.8,73.8,30.00,East,84,0.0,0.0,82,0.00,,OVC,0.00,WeatherDisplay:10.37,2013-08-10 07:52:00,
2013-08-10 03:57:00,79.8,74.2,30.00,East,86,0.0,0.0,83,0.00,,OVC,0.00,WeatherDisplay:10.37,2013-08-10 07:57:00,
2013-08-10 04:02:00,79.8,74.2,30.00,East,81,0.0,0.0,83,0.00,,OVC,0.00,WeatherDisplay:10.37,2013-08-10 08:02:00,
2013-08-10 04:07:00,79.8,73.8,30.00,East,94,5.0,5.0,82,0.00,,OVC,0.00,WeatherDisplay:10.37,2013-08-10 08:07:00,
2013-08-10 04:12:00,79.8,73.8,30.00,East,94,0.0,0.0,82,0.00,,OVC,0.00,WeatherDisplay:10.37,2013-08-10 08:12:00,
2013-08-10 04:17:00,79.8,73.8,30.00,East,89,0.0,0.0,82,0.00,,OVC,0.00,WeatherDisplay:10.37,2013-08-10 08:17:00,
2013-08-10 04:22:00,79.8,74.2,30.00,ENE,75,0.0,0.0,83,0.00,,OVC,0.00,WeatherDisplay:10.37,2013-08-10 08:22:00,
2013-08-10 04:27:00,79.8,74.2,30.00,East,79,0.0,0.0,83,0.00,,OVC,0.00,WeatherDisplay:10.37,2013-08-10 08:27:00,
2013-08-10 04:32:00,79.8,74.2,30.00,East,84,0.0,0.0,83,0.00,,OVC,0.00,WeatherDisplay:10.37,2013-08-10 08:32:00,
2013-08-10 04:37:00,79.8,74.2,30.00,East,85,0.0,0.0,83,0.00,,OVC,0.00,WeatherDisplay:10.37,2013-08-10 08:37:00,
2013-08-10 04:42:00,79.6,74.0,30.00,East,85,0.0,0.0,83,0.00,,OVC,0.00,WeatherDisplay:10.37,2013-08-10 08:42:00,
2013-08-10 04:47:00,79.6,74.0,30.01,East,85,0.0,0.0,83,0.00,,OVC,0.00,WeatherDisplay:10.37,2013-08-10 08:47:00,
2013-08-10 04:52:00,79.6,74.0,30.01,East,85,0.0,0.0,83,0.00,,OVC,0.00,WeatherDisplay:10.37,2013-08-10 08:52:00,
2013-08-10 04:57:00,79.4,74.1,30.01,East,85,0.0,0.0,84,0.00,,OVC,0.00,WeatherDisplay:10.37,2013-08-10 08:57:00,
2013-08-10 05:02:00,79.4,74.1,30.01,East,85,0.0,0.0,84,0.00,,OVC,0.00,WeatherDisplay:10.37,2013-08-10 09:02:00,
2013-08-10 05:07:00,79.4,74.1,30.01,ENE,78,0.0,0.0,84,0.00,,OVC,0.00,WeatherDisplay:10.37,2013-08-10 09:07:00,
2013-08-10 05:12:00,79.4,74.1,30.01,ENE,78,0.0,0.0,84,0.00,,OVC,0.00,WeatherDisplay:10.37,2013-08-10 09:12:00,
2013-08-10 05:17:00,79.6,74.3,30.01,East,80,0.0,0.0,84,0.00,,OVC,0.00,WeatherDisplay:10.37,2013-08-10 09:17:00,
2013-08-10 05:22:00,79.6,74.3,30.01,East,92,2.3,2.3,84,0.00,,OVC,0.00,WeatherDisplay:10.37,2013-08-10 09:22:00,
2013-08-10 05:27:00,79.6,74.3,30.01,East,92,0.0,0.0,84,0.00,,OVC,0.00,WeatherDisplay:10.37,2013-08-10 09:27:00,
2013-08-10 05:32:00,79.8,74.2,30.01,East,94,0.0,0.0,83,0.00,,OVC,0.00,WeatherDisplay:10.37,2013-08-10 09:32:00,
2013-08-10 05:37:00,79.9,74.3,30.01,East,100,0.0,0.0,83,0.00,,OVC,0.00,WeatherDisplay:10.37,2013-08-10 09:37:00,
2013-08-10 05:42:00,79.9,74.3,30.01,East,99,0.0,0.0,83,0.00,,OVC,0.00,WeatherDisplay:10.37,2013-08-10 09:42:00,
2013-08-10 05:47:00,80.1,74.1,30.01,East,101,0.0,0.0,82,0.00,,OVC,0.00,WeatherDisplay:10.37,2013-08-10 09:47:00,
2013-08-10 05:52:00,80.1,74.1,30.01,NE,55,2.3,2.3,82,0.00,,OVC,0.00,WeatherDisplay:10.37,2013-08-10 09:52:00,
2013-08-10 05:57:00,80.1,74.5,30.01,NE,55,0.0,0.0,83,0.00,,OVC,0.00,WeatherDisplay:10.37,2013-08-10 09:57:00,
2013-08-10 06:02:00,80.3,74.7,30.01,NE,56,0.0,0.0,83,0.00,,OVC,0.00,WeatherDisplay:10.37,2013-08-10 10:02:00,
2013-08-10 06:07:00,80.3,74.7,30.01,ESE,108,0.0,0.0,83,0.00,,OVC,0.00,WeatherDisplay:10.37,2013-08-10 10:07:00,
2013-08-10 06:12:00,80.3,74.7,30.01,ESE,115,0.0,0.0,83,0.00,,OVC,0.00,WeatherDisplay:10.37,2013-08-10 10:12:00,
2013-08-10 06:17:00,80.5,74.9,30.01,East,96,0.0,0.0,83,0.00,,OVC,0.00,WeatherDisplay:10.37,2013-08-10 10:17:00,
2013-08-10 06:22:00,80.5,74.9,30.01,ESE,114,0.0,0.0,83,0.00,,OVC,0.00,WeatherDisplay:10.37,2013-08-10 10:22:00,
2013-08-10 06:27:00,80.7,74.7,30.01,SE,143,9.2,9.2,82,0.00,,OVC,0.00,WeatherDisplay:10.37,2013-08-10 10:27:00,
2013-08-10 06:32:00,80.7,74.3,30.02,NNE,24,0.0,0.0,81,0.00,,OVC,0.00,WeatherDisplay:10.37,2013-08-10 10:32:00,
2013-08-10 06:37:00,80.9,74.5,30.02,East,98,0.0,0.0,81,0.00,,OVC,0.00,WeatherDisplay:10.37,2013-08-10 10:37:00,
2013-08-10 06:42:00,80.9,74.5,30.02,SE,140,5.8,5.8,81,0.00,,OVC,0.00,WeatherDisplay:10.37,2013-08-10 10:42:00,
2013-08-10 06:47:00,80.9,74.1,30.02,SE,124,0.0,0.0,80,0.00,,OVC,0.00,WeatherDisplay:10.37,2013-08-10 10:47:00,
2013-08-10 06:52:00,80.9,74.1,30.02,East,94,0.0,0.0,80,0.00,,OVC,0.00,WeatherDisplay:10.37,2013-08-10 10:52:00,
2013-08-10 06:57:00,81.1,74.3,30.02,ENE,76,0.0,0.0,80,0.00,,OVC,0.00,WeatherDisplay:10.37,2013-08-10 10:57:00,
2013-08-10 07:02:00,81.1,74.3,30.02,East,87,0.0,0.0,80,0.00,,OVC,0.00,WeatherDisplay:10.37,2013-08-10 11:02:00,
2013-08-10 07:07:00,81.1,74.3,30.02,ENE,61,0.0,0.0,80,0.00,,OVC,0.00,WeatherDisplay:10.37,2013-08-10 11:07:00,
2013-08-10 07:12:00,81.2,74.4,30.02,ENE,74,0.0,0.0,80,0.00,,OVC,0.00,WeatherDisplay:10.37,2013-08-10 11:12:00,
2013-08-10 07:17:00,81.4,74.6,30.02,East,80,0.0,0.0,80,0.00,,OVC,0.00,WeatherDisplay:10.37,2013-08-10 11:17:00,
2013-08-10 07:22:00,81.4,74.3,30.02,SE,131,0.0,0.0,79,0.00,,OVC,0.00,WeatherDisplay:10.37,2013-08-10 11:22:00,
2013-08-10 07:27:00,81.4,73.9,30.02,ESE,109,0.0,0.0,78,0.00,,OVC,0.00,WeatherDisplay:10.37,2013-08-10 11:27:00,
2013-08-10 07:32:00,81.6,74.1,30.02,North,5,0.0,0.0,78,0.00,,OVC,0.00,WeatherDisplay:10.37,2013-08-10 11:32:00,
2013-08-10 07:37:00,81.8,73.9,30.02,ESE,112,0.0,0.0,77,0.00,,OVC,0.00,WeatherDisplay:10.37,2013-08-10 11:37:00,
2013-08-10 07:42:00,81.8,73.9,30.02,ESE,119,13.0,13.0,77,0.00,,OVC,0.00,WeatherDisplay:10.37,2013-08-10 11:42:00,
2013-08-10 07:47:00,82.0,74.1,30.02,ESE,111,2.3,0.0,77,0.00,,OVC,0.00,WeatherDisplay:10.37,2013-08-10 11:47:00,
2013-08-10 07:52:00,81.8,73.9,30.02,ESE,123,4.6,0.0,77,0.00,,OVC,0.00,WeatherDisplay:10.37,2013-08-10 11:52:00,
2013-08-10 07:57:00,82.0,73.7,30.02,East,80,0.0,0.0,76,0.00,,OVC,0.00,WeatherDisplay:10.37,2013-08-10 11:57:00,
2013-08-10 08:02:00,82.0,73.7,30.02,SE,127,8.1,0.0,76,0.00,,OVC,0.00,WeatherDisplay:10.37,2013-08-10 12:02:00,
2013-08-10 08:07:00,82.4,74.1,30.02,NNE,26,0.0,0.0,76,0.00,,OVC,0.00,WeatherDisplay:10.37,2013-08-10 12:07:00,
2013-08-10 08:12:00,82.6,74.3,30.02,East,92,0.0,0.0,76,0.00,,OVC,0.00,WeatherDisplay:10.37,2013-08-10 12:12:00,
2013-08-10 08:17:00,82.8,74.5,30.04,ESE,119,6.9,6.9,76,0.00,,OVC,0.00,WeatherDisplay:10.37,2013-08-10 12:17:00,
2013-08-10 08:22:00,83.0,74.6,30.04,SE,142,5.8,5.8,76,0.00,,OVC,0.00,WeatherDisplay:10.37,2013-08-10 12:22:00,
2013-08-10 08:27:00,83.2,74.8,30.04,ESE,118,0.0,1.6,76,0.00,,OVC,0.00,WeatherDisplay:10.37,2013-08-10 12:27:00,
2013-08-10 08:32:00,83.0,74.6,30.04,ESE,111,10.4,0.0,76,0.00,,OVC,0.00,WeatherDisplay:10.37,2013-08-10 12:32:00,
2013-08-10 08:38:00,83.0,75.0,30.04,SE,137,2.3,2.3,77,0.00,,OVC,0.00,WeatherDisplay:10.37,2013-08-10 12:38:00,
2013-08-10 08:43:00,83.0,75.0,30.04,East,88,0.0,0.3,77,0.00,,OVC,0.00,WeatherDisplay:10.37,2013-08-10 12:43:00,
2013-08-10 08:48:00,83.0,75.4,30.05,East,94,4.6,4.6,78,0.00,,OVC,0.00,WeatherDisplay:10.37,2013-08-10 12:48:00,
2013-08-10 08:53:00,83.0,75.4,30.05,ESE,118,10.4,0.0,78,0.00,,OVC,0.00,WeatherDisplay:10.37,2013-08-10 12:53:00,
2013-08-10 08:58:00,82.8,75.6,30.05,SE,130,19.6,19.6,79,0.00,,OVC,0.00,WeatherDisplay:10.37,2013-08-10 12:58:00,
2013-08-10 09:03:00,83.0,75.4,30.05,SSE,149,8.0,8.0,78,0.00,,OVC,0.00,WeatherDisplay:10.37,2013-08-10 13:03:00,
2013-08-10 09:08:00,83.2,74.4,30.05,SE,136,24.2,24.2,75,0.00,,OVC,0.00,WeatherDisplay:10.37,2013-08-10 13:08:00,
2013-08-10 09:13:00,83.4,73.8,30.05,SE,128,11.5,11.5,73,0.00,,OVC,0.00,WeatherDisplay:10.37,2013-08-10 13:13:00,
2013-08-10 09:18:00,84.0,74.0,30.05,SSE,148,21.9,21.9,72,0.00,,OVC,0.00,WeatherDisplay:10.37,2013-08-10 13:18:00,
2013-08-10 09:23:00,84.5,74.5,30.05,East,87,14.0,14.0,72,0.00,,OVC,0.00,WeatherDisplay:10.37,2013-08-10 13:23:00,
2013-08-10 09:28:00,84.9,74.0,30.05,North,355,2.3,2.3,70,0.00,,OVC,0.00,WeatherDisplay:10.37,2013-08-10 13:28:00,
2013-08-10 09:33:00,85.1,73.8,30.06,SE,146,16.1,16.1,69,0.00,,OVC,0.00,WeatherDisplay:10.37,2013-08-10 13:33:00,
2013-08-10 09:38:00,85.1,74.6,30.06,ESE,123,20.7,20.7,71,0.00,,OVC,0.00,WeatherDisplay:10.37,2013-08-10 13:38:00,
2013-08-10 09:43:00,84.9,74.0,30.06,SE,142,28.8,28.8,70,0.00,,OVC,0.00,WeatherDisplay:10.37,2013-08-10 13:43:00,
2013-08-10 09:48:00,84.7,74.3,30.06,SE,144,9.2,9.2,71,0.00,,OVC,0.00,WeatherDisplay:10.37,2013-08-10 13:48:00,
2013-08-10 09:53:00,84.5,74.1,30.06,SSE,155,20.7,20.7,71,0.00,,OVC,0.00,WeatherDisplay:10.37,2013-08-10 13:53:00,
2013-08-10 09:58:00,85.3,74.4,30.06,NE,41,12.7,12.7,70,0.00,,OVC,0.00,WeatherDisplay:10.37,2013-08-10 13:58:00,
2013-08-10 10:03:00,85.5,73.7,30.07,SE,144,8.1,8.1,68,0.00,CLR,OVC,0.00,WeatherDisplay:10.37,2013-08-10 14:03:00,
2013-08-10 10:08:00,85.9,74.1,30.07,SE,146,9.2,9.2,68,0.00,CLR,OVC,0.00,WeatherDisplay:10.37,2013-08-10 14:08:00,
2013-08-10 10:13:00,86.1,73.9,30.07,SE,141,0.0,0.0,67,0.00,CLR,OVC,0.00,WeatherDisplay:10.37,2013-08-10 14:13:00,
2013-08-10 10:18:00,86.3,73.6,30.07,South,169,24.2,24.2,66,0.00,CLR,OVC,0.00,WeatherDisplay:10.37,2013-08-10 14:18:00,
2013-08-10 10:23:00,86.1,73.9,30.07,ENE,74,9.2,9.2,67,0.00,CLR,OVC,0.00,WeatherDisplay:10.37,2013-08-10 14:23:00,
2013-08-10 10:28:00,86.1,74.7,30.07,ESE,123,3.5,3.5,69,0.00,CLR,OVC,0.00,WeatherDisplay:10.37,2013-08-10 14:28:00,
2013-08-10 10:33:00,86.3,74.5,30.07,ESE,102,26.5,26.5,68,0.00,CLR,OVC,0.00,WeatherDisplay:10.37,2013-08-10 14:33:00,
2013-08-10 10:38:00,87.0,75.2,30.07,SE,130,16.1,16.1,68,0.00,CLR,OVC,0.00,WeatherDisplay:10.37,2013-08-10 14:38:00,
2013-08-10 10:43:00,87.2,74.9,30.07,SE,127,25.3,25.3,67,0.00,CLR,OVC,0.00,WeatherDisplay:10.37,2013-08-10 14:43:00,
2013-08-10 10:48:00,86.5,74.2,30.08,ESE,121,19.6,19.6,67,0.00,CLR,OVC,0.00,WeatherDisplay:10.37,2013-08-10 14:48:00,
2013-08-10 10:53:00,87.0,74.3,30.08,SSE,163,11.0,11.0,66,0.00,CLR,OVC,0.00,WeatherDisplay:10.37,2013-08-10 14:53:00,
2013-08-10 10:58:00,87.4,74.6,30.08,ENE,61,10.4,10.4,66,0.00,CLR,OVC,0.00,WeatherDisplay:10.37,2013-08-10 14:58:00,
2013-08-10 11:03:00,87.6,73.9,30.08,ESE,103,13.8,13.8,64,0.00,CLR,OVC,0.00,WeatherDisplay:10.37,2013-08-10 15:03:00,
2013-08-10 11:08:00,87.8,73.2,30.08,SE,137,16.1,16.1,62,0.00,CLR,OVC,0.00,WeatherDisplay:10.37,2013-08-10 15:08:00,
2013-08-10 11:13:00,88.0,73.3,30.08,SSE,149,1.2,1.2,62,0.00,CLR,OVC,0.00,WeatherDisplay:10.37,2013-08-10 15:13:00,
2013-08-10 11:18:00,87.6,73.4,30.08,SE,142,15.0,15.0,63,0.00,CLR,OVC,0.00,WeatherDisplay:10.37,2013-08-10 15:18:00,
2013-08-10 11:23:00,87.2,73.5,30.08,NE,39,18.4,18.4,64,0.00,CLR,OVC,0.00,WeatherDisplay:10.37,2013-08-10 15:23:00,
2013-08-10 11:28:00,87.4,73.7,30.08,SE,136,19.6,19.6,64,0.00,CLR,OVC,0.00,WeatherDisplay:10.37,2013-08-10 15:28:00,
2013-08-10 11:33:00,87.8,73.2,30.08,SE,144,15.0,15.0,62,0.00,CLR,OVC,0.00,WeatherDisplay:10.37,2013-08-10 15:33:00,
2013-08-10 11:38:00,87.8,73.2,30.08,ESE,103,19.6,19.6,62,0.00,CLR,OVC,0.00,WeatherDisplay:10.37,2013-08-10 15:38:00,
2013-08-10 11:43:00,87.8,73.6,30.08,SE,134,20.7,20.7,63,0.00,CLR,OVC,0.00,WeatherDisplay:10.37,2013-08-10 15:43:00,
2013-08-10 11:48:00,87.8,74.1,30.08,SSE,150,0.0,0.0,64,0.00,CLR,OVC,0.00,WeatherDisplay:10.37,2013-08-10 15:48:00,
2013-08-10 11:53:00,88.2,73.5,30.08,SSE,148,16.1,16.1,62,0.00,CLR,OVC,0.00,WeatherDisplay:10.37,2013-08-10 15:53:00,
2013-08-10 11:58:00,88.8,74.1,30.08,SE,146,8.1,8.1,62,0.00,CLR,OVC,0.00,WeatherDisplay:10.37,2013-08-10 15:58:00,
2013-08-10 20:44:00,83.6,74.0,30.04,NE,49,6.0,6.0,73,0.00,,OVC,0.00,WeatherDisplay:10.37,2013-08-11 00:44:00,
2013-08-10 20:49:00,83.6,74.4,30.04,NE,53,11.5,11.5,74,0.00,,OVC,0.00,WeatherDisplay:10.37,2013-08-11 00:49:00,
2013-08-10 20:54:00,83.6,74.0,30.04,ESE,123,11.5,11.5,73,0.00,,OVC,0.00,WeatherDisplay:10.37,2013-08-11 00:54:00,
2013-08-10 21:00:00,83.6,74.4,30.04,East,83,11.5,11.5,74,0.00,,OVC,0.00,WeatherDisplay:10.37,2013-08-11 01:00:00,
2013-08-10 21:05:00,83.6,74.0,30.04,NE,52,15.0,15.0,73,0.00,,OVC,0.00,WeatherDisplay:10.37,2013-08-11 01:05:00,
2013-08-10 21:10:00,83.4,74.2,30.04,ENE,61,2.3,2.3,74,0.00,,OVC,0.00,WeatherDisplay:10.37,2013-08-11 01:10:00,
2013-08-10 21:15:00,83.4,74.2,30.04,ENE,60,0.0,0.0,74,0.00,,OVC,0.00,WeatherDisplay:10.37,2013-08-11 01:15:00,
2013-08-10 21:20:00,83.4,74.2,30.04,NE,46,15.0,15.0,74,0.00,,OVC,0.00,WeatherDisplay:10.37,2013-08-11 01:20:00,
2013-08-10 21:25:00,83.4,74.2,30.04,NE,53,24.2,24.2,74,0.00,,OVC,0.00,WeatherDisplay:10.37,2013-08-11 01:25:00,
2013-08-10 21:30:00,83.4,74.2,30.04,ENE,63,11.5,11.5,74,0.00,,OVC,0.00,WeatherDisplay:10.37,2013-08-11 01:30:00,
2013-08-10 21:35:00,83.4,74.2,30.04,NE,53,3.5,3.5,74,0.00,,OVC,0.00,WeatherDisplay:10.37,2013-08-11 01:35:00,
2013-08-10 21:40:00,83.2,74.0,30.04,ENE,76,0.0,0.0,74,0.00,,OVC,0.00,WeatherDisplay:10.37,2013-08-11 01:40:00,
2013-08-10 21:45:00,83.2,74.4,30.05,NE,38,3.5,3.5,75,0.00,,OVC,0.00,WeatherDisplay:10.37,2013-08-11 01:45:00,
2013-08-10 21:50:00,83.2,74.4,30.05,ENE,58,10.4,10.4,75,0.00,,OVC,0.00,WeatherDisplay:10.37,2013-08-11 01:50:00,
2013-08-10 21:55:00,83.2,74.0,30.05,ENE,66,16.1,16.1,74,0.00,,OVC,0.00,WeatherDisplay:10.37,2013-08-11 01:55:00,
2013-08-10 22:00:00,83.2,74.0,30.05,East,89,8.1,8.1,74,0.00,,OVC,0.00,WeatherDisplay:10.37,2013-08-11 02:00:00,
2013-08-10 22:05:00,83.0,73.9,30.05,East,88,0.0,0.0,74,0.00,,OVC,0.00,WeatherDisplay:10.37,2013-08-11 02:05:00,
2013-08-10 22:10:00,83.0,73.9,30.05,ENE,69,2.3,2.3,74,0.00,,OVC,0.00,WeatherDisplay:10.37,2013-08-11 02:10:00,
2013-08-10 22:15:00,83.0,73.9,30.05,ENE,76,0.0,0.0,74,0.00,,OVC,0.00,WeatherDisplay:10.37,2013-08-11 02:15:00,
2013-08-10 22:20:00,83.0,73.9,30.05,SE,126,3.5,3.5,74,0.00,,OVC,0.00,WeatherDisplay:10.37,2013-08-11 02:20:00,
2013-08-10 22:25:00,83.0,74.3,30.05,ENE,71,0.0,0.0,75,0.00,,OVC,0.00,WeatherDisplay:10.37,2013-08-11 02:25:00,
2013-08-10 22:30:00,83.0,74.3,30.06,ESE,102,0.0,0.0,75,0.00,,OVC,0.00,WeatherDisplay:10.37,2013-08-11 02:30:00,
2013-08-10 22:35:00,83.0,74.6,30.06,East,87,0.0,0.0,76,0.00,,OVC,0.00,WeatherDisplay:10.37,2013-08-11 02:35:00,
2013-08-10 22:40:00,83.0,74.3,30.06,ESE,111,0.0,0.0,75,0.00,,OVC,0.00,WeatherDisplay:10.37,2013-08-11 02:40:00,
2013-08-10 22:45:00,82.8,74.5,30.06,ENE,59,4.6,4.6,76,0.00,,OVC,0.00,WeatherDisplay:10.37,2013-08-11 02:45:00,
2013-08-10 22:50:00,82.8,74.5,30.06,ENE,59,0.0,0.0,76,0.00,,OVC,0.00,WeatherDisplay:10.37,2013-08-11 02:50:00,
2013-08-10 22:56:00,82.8,74.5,30.06,East,85,0.0,0.0,76,0.00,,OVC,0.00,WeatherDisplay:10.37,2013-08-11 02:56:00,
2013-08-10 23:02:00,82.6,74.3,30.06,East,84,0.0,0.0,76,0.00,,OVC,0.00,WeatherDisplay:10.37,2013-08-11 03:02:00,
2013-08-10 23:07:00,82.6,73.9,30.06,ENE,59,0.0,0.0,75,0.00,,OVC,0.00,WeatherDisplay:10.37,2013-08-11 03:07:00,
2013-08-10 23:12:00,82.6,73.9,30.06,ENE,72,0.0,0.0,75,0.00,,OVC,0.00,WeatherDisplay:10.37,2013-08-11 03:12:00,
2013-08-10 23:17:00,82.6,73.9,30.06,ENE,62,4.6,4.6,75,0.00,,OVC,0.00,WeatherDisplay:10.37,2013-08-11 03:17:00,
2013-08-10 23:22:00,82.6,73.9,30.06,ENE,69,0.0,0.0,75,0.00,,OVC,0.00,WeatherDisplay:10.37,2013-08-11 03:22:00,
2013-08-10 23:27:00,82.6,73.9,30.06,ENE,61,0.0,0.0,75,0.00,,OVC,0.00,WeatherDisplay:10.37,2013-08-11 03:27:00,
2013-08-10 23:32:00,82.6,73.9,30.07,ENE,70,0.0,0.0,75,0.00,,OVC,0.00,WeatherDisplay:10.37,2013-08-11 03:32:00,
2013-08-10 23:37:00,82.4,73.7,30.07,ENE,69,0.0,0.0,75,0.00,,OVC,0.00,WeatherDisplay:10.37,2013-08-11 03:37:00,
2013-08-10 23:43:00,82.4,73.7,30.07,ENE,70,0.0,0.0,75,0.00,,OVC,0.00,WeatherDisplay:10.37,2013-08-11 03:43:00,
2013-08-10 23:48:00,82.2,73.5,30.06,ENE,70,0.0,0.0,75,0.00,,OVC,0.00,WeatherDisplay:10.37,2013-08-11 03:48:00,
2013-08-10 23:53:00,82.2,73.5,30.06,ENE,70,0.0,0.0,75,0.00,,OVC,0.00,WeatherDisplay:10.37,2013-08-11 03:53:00,
2013-08-10 23:58:00,82.2,73.5,30.06,ENE,70,0.0,0.0,75,0.00,,OVC,0.00,WeatherDisplay:10.37,2013-08-11 03:58:00,